KHWO/HWO METAR and TAF weather

Enter ICAO airport designator
Station Type Date Time Source
KHWO METAR 2020/07/06 22:53 UTC NOAA

KHWO 062253Z 16003KT 10SM FEW032 A3007 RMK AO2 SLP184


Station Type Date Time Source
KHWO Decoded METAR 2020/07/06 22:53 UTC NOAA

HOLLYWOOD NORTH PERRY AIRPORT , FL, United States (KHWO) 26-00N 080-14W 2M
Jul 06, 2020 - 06:53 PM EDT / 2020.07.06 2253 UTC
Wind: from the SSE (160 degrees) at 3 MPH (3 KT):0
Visibility: 10 mile(s):0
Sky conditions: mostly clear
Pressure (altimeter): 30.07 in. Hg (1018 hPa)
ob: KHWO 062253Z 16003KT 10SM FEW032 A3007 RMK AO2 SLP184
cycle: 23

Station Type Date Time Source
KHWO TAF 2020/02/03 18:20 UTC NOAA

TAF KHWO 031720Z 0318/0418 12005KT P6SM SKC
FM040000 VRB03KT P6SM SKC
FM041500 14010KT P6SM FEW030

Example: see airport list